• Join FlightAware (Why Join?)
  • Login
  • US Flag GB Flag 
10:50 EST


 

Airport Tracker/Info


-or-


 

Live Flight TrackerFlight Track Log ✈ FDX1603 ✈ 09-May-2013 ✈ KATL - KIND

Flight Track Log - Related Links

Times and Time Zones

All times are in EDT time to prevent confusion due to time zone crossing. See the FDX1603 flight status page for this flight to view local times or setup timezone preferences in your user account.

Time Position Orientation Groundspeed Altitude Reporting Facility
EDT Latitude Longitude Course Direction KTS MPH feet Rate Location/Type
23:30 33.6470 -84.4400 271° West 164 189 1,800  Level FlightAware
23:31 33.6490 -84.4780 274° West 218 251 2,900 2,100 Climbing FlightAware
23:31 33.6510 -84.5060 275° West 245 282 3,900 3,273 Climbing FlightAware
23:32 33.6620 -84.5540 285° West 267 307 5,900 3,900 Climbing FlightAware
23:32 33.6720 -84.5660 315° West 277 319 6,500 3,120 Climbing FlightAware
23:32 33.6850 -84.5740 333° Northwest 278 320 7,200 4,000 Climbing FlightAware
23:32 33.7070 -84.5790 349° North 275 316 8,500 3,771 Climbing FlightAware
23:33 33.7280 -84.5800 358° North 283 326 9,400 2,557 Climbing FlightAware
23:34 33.8750 -84.5780 North 360 414 13,400 2,566 Climbing FlightAware
23:35 33.9550 -84.5820 358° North 381 438 15,600 2,779 Climbing FlightAware
23:36 34.0500 -84.5870 358° North 404 465 17,800 3,053 Climbing FlightAware
23:36 34.0771 -84.5880 358° North 408 470 18,500 2,651 Climbing FlightAware ADS-B
23:37 34.1366 -84.5901 358° North 421 484 19,700 2,323 Climbing FlightAware ADS-B
23:37 34.1977 -84.5920 359° North 432 497 20,900 2,557 Climbing FlightAware ADS-B
23:38 34.2582 -84.5938 359° North 436 502 22,300 2,520 Climbing FlightAware ADS-B
23:38 34.2982 -84.5976 356° North 440 506 23,000 2,353 Climbing FlightAware ADS-B
23:38 34.3603 -84.6132 348° North 444 511 24,300 2,571 Climbing FlightAware ADS-B
23:39 34.4265 -84.6292 349° North 447 514 25,700 2,597 Climbing FlightAware ADS-B
23:40 34.4954 -84.6457 349° North 444 511 27,200 2,123 Climbing FlightAware ADS-B
23:40 34.5578 -84.6614 348° North 454 522 28,000 1,672 Climbing FlightAware ADS-B
23:41 34.6224 -84.6773 349° North 463 533 28,900 2,032 Climbing FlightAware ADS-B
23:41 34.6868 -84.6929 349° North 460 529 30,100 2,459 Climbing FlightAware ADS-B
23:42 34.7493 -84.7085 348° North 455 524 31,400 1,810 Climbing FlightAware ADS-B
23:42 34.8166 -84.7257 348° North 452 520 32,000 563 Climbing FlightAware ADS-B
23:43 34.8795 -84.7418 348° North 450 518 32,000  Level FlightAware ADS-B
23:44 34.9770 -84.7660 349° North 446 513 32,000  Level FlightAware
23:44 35.0275 -84.7781 349° North 452 520 32,000  Level FlightAware ADS-B
23:44 35.0922 -84.7946 348° North 453 521 32,000  Level FlightAware ADS-B
23:45 35.1543 -84.8099 349° North 454 522 32,000  Level FlightAware ADS-B
23:45 35.2170 -84.8254 349° North 454 522 32,000  Level FlightAware ADS-B
23:46 35.2794 -84.8410 348° North 455 524 32,000  Level FlightAware ADS-B
23:46 35.3417 -84.8568 348° North 455 524 32,000  Level FlightAware ADS-B
23:47 35.4046 -84.8728 348° North 456 525 32,000  Level FlightAware ADS-B
23:47 35.4675 -84.8885 349° North 455 524 32,000  Level FlightAware ADS-B
23:48 35.5296 -84.9042 348° North 454 522 32,000  Level FlightAware ADS-B
23:48 35.5916 -84.9199 348° North 454 522 32,000  Level FlightAware ADS-B
23:49 35.6563 -84.9364 348° North 455 524 32,000  Level FlightAware ADS-B
23:50 35.7370 -84.9570 348° North 455 524 32,000  Level FlightAware
23:50 35.7621 -84.9631 349° North 456 525 32,000  Level FlightAware ADS-B
23:50 35.8247 -84.9790 348° North 457 526 32,000  Level FlightAware ADS-B
23:51 35.8871 -84.9948 348° North 458 527 32,000  Level FlightAware ADS-B
23:51 35.9573 -85.0128 348° North 458 527 32,000  Level FlightAware ADS-B
23:52 36.0204 -85.0289 348° North 458 527 32,000  Level FlightAware ADS-B
23:52 36.0831 -85.0452 348° North 458 527 32,000  Level FlightAware ADS-B
23:53 36.1468 -85.0615 348° North 459 528 32,000  Level FlightAware ADS-B
23:53 36.2110 -85.0780 348° North 459 528 32,000  Level FlightAware ADS-B
23:54 36.3071 -85.1023 348° North 458 527 32,000  Level FlightAware ADS-B
23:55 36.3694 -85.1185 348° North 457 526 32,000  Level FlightAware ADS-B
23:55 36.4369 -85.1362 348° North 455 524 32,000  Level FlightAware ADS-B
23:56 36.5318 -85.1609 348° North 455 524 32,000  Level FlightAware ADS-B
23:56 36.5951 -85.1775 348° North 455 524 32,000  Level FlightAware ADS-B
23:57 36.6777 -85.1989 348° North 454 522 32,000  Level FlightAware ADS-B
23:58 36.7477 -85.2171 348° North 456 525 32,000  Level FlightAware ADS-B
23:58 36.8104 -85.2332 348° North 453 521 32,000  Level FlightAware ADS-B
23:59 36.8723 -85.2494 348° North 451 519 32,000  Level FlightAware ADS-B
23:59 36.8994 -85.2582 345° North 448 516 32,000  Level FlightAware ADS-B
23:59 36.9410 -85.2783 339° North 444 511 32,000  Level FlightAware ADS-B
00:00 36.9845 -85.3050 334° Northwest 444 511 32,000  Level FlightAware ADS-B
00:00 37.0411 -85.3377 335° Northwest 444 511 32,000  Level FlightAware ADS-B
00:01 37.0981 -85.3717 335° Northwest 445 512 32,000  Level FlightAware ADS-B
00:01 37.1539 -85.4040 335° Northwest 430 495 32,000  Level FlightAware ADS-B
00:02 37.2356 -85.4528 335° Northwest 372 428 32,000  Level FlightAware ADS-B
00:03 37.2827 -85.4801 335° Northwest 368 423 32,000  Level FlightAware ADS-B
00:03 37.3324 -85.5090 335° Northwest 368 423 32,000  Level FlightAware ADS-B
00:04 37.3839 -85.5397 335° Northwest 363 418 32,000  Level FlightAware ADS-B
00:04 37.4295 -85.5671 334° Northwest 362 417 32,000  Level FlightAware ADS-B
00:05 37.4792 -85.5961 335° Northwest 365 420 32,000  Level FlightAware ADS-B
00:05 37.5264 -85.6245 334° Northwest 364 419 32,000 -290 Level FlightAware ADS-B
00:06 37.5734 -85.6530 334° Northwest 369 425 31,700 -554 Descending FlightAware ADS-B
00:06 37.6256 -85.6844 335° Northwest 366 421 31,400 -667 Descending FlightAware ADS-B
00:07 37.6706 -85.7117 334° Northwest 365 420 31,000 -774 Descending FlightAware ADS-B
00:07 37.7212 -85.7414 335° Northwest 365 420 30,600 -646 Descending FlightAware ADS-B
00:08 37.7640 -85.7700 332° Northwest 349 402 30,300 -500 Descending FlightAware
00:09 37.8100 -85.8280 315° West 345 397 30,000 -212 Descending FlightAware
00:09 37.8610 -85.8920 315° West 347 399 30,000  Level FlightAware
00:10 37.9010 -85.9430 315° West 373 429 30,000  Level FlightAware
00:11 37.9580 -86.0160 315° West 407 468 30,000  Level FlightAware
00:11 38.0140 -86.0860 315° West 410 472 30,000  Level FlightAware
00:12 38.0730 -86.1600 315° West 410 472 30,000 -353 Level FlightAware
00:13 38.1260 -86.2270 315° West 408 470 29,500 -706 Descending FlightAware
00:13 38.1860 -86.3010 316° Northwest 404 465 29,000 -706 Descending FlightAware
00:14 38.2410 -86.3710 315° West 395 455 28,500 -640 Descending FlightAware
00:15 38.2830 -86.4260 314° West 393 452 28,200 -675 Descending FlightAware
00:15 38.3400 -86.4970 316° Northwest 389 448 27,600 -776 Descending FlightAware
00:16 38.3960 -86.5680 315° West 388 447 27,100 -706 Descending FlightAware
00:17 38.4510 -86.6370 316° Northwest 388 447 26,600 -635 Descending FlightAware
00:18 38.5020 -86.7010 316° Northwest 385 443 26,200 -675 Descending FlightAware
00:18 38.5610 -86.7580 323° Northwest 397 457 25,700 -764 Descending FlightAware
00:18 38.5860 -86.7660 346° North 406 467 25,500 -667 Descending FlightAware
00:19 38.6390 -86.7630 North 416 479 25,200 -1,457 Descending FlightAware
00:20 38.7200 -86.7540 North 419 482 23,800 -2,025 Descending FlightAware
00:20 38.7970 -86.7450 North 420 483 22,500 -2,118 Descending FlightAware
00:21 38.8860 -86.7340 North 414 476 20,800 -2,188 Descending FlightAware
00:22 38.9610 -86.7260 North 392 451 19,400 -2,118 Descending FlightAware
00:22 39.0380 -86.7170 North 381 438 17,800 -1,200 Descending FlightAware
00:23 39.0950 -86.7110 North 381 438 17,800 -1,840 Level FlightAware
00:24 39.1700 -86.6990 North 374 430 15,500 -2,175 Descending FlightAware
00:24 39.2360 -86.6910 North 370 426 14,900 -400 Descending FlightAware
00:25 39.3080 -86.6830 North 370 426 14,900  Level FlightAware
00:26 39.3660 -86.6760 North 370 426 14,900 -3,525 Level FlightAware
00:27 39.3833 -86.4833 North 370 426 10,200 -2,940 Descending Indianapolis TRACON
00:28 39.4500 -86.4000 44° Northeast 342 394 10,000 -298 Descending Indianapolis TRACON
00:29 39.5167 -86.3167 44° Northeast 281 323 9,600 -1,134 Descending Indianapolis TRACON
00:30 39.5667 -86.2500 46° Northeast 268 308 7,600 -1,238 Descending Indianapolis TRACON
00:31 39.6167 -86.2000 38° Northeast 241 277 7,000 -300 Descending Indianapolis TRACON
00:32 39.6833 -86.1500 30° Northeast 235 270 7,000 -450 Level Indianapolis TRACON
00:33 39.7333 -86.1167 27° Northeast 239 275 6,100 -950 Descending Indianapolis TRACON
00:34 39.7833 -86.0500 46° Northeast 250 288 5,100 -1,050 Descending Indianapolis TRACON
00:35 39.8333 -85.9833 46° Northeast 248 285 4,000 -550 Descending Indianapolis TRACON
00:36 39.8833 -85.9167 46° Northeast 240 276 4,000  Level Indianapolis TRACON
00:37 39.9333 -85.9333 346° North 183 211 4,000  Level Indianapolis TRACON
00:38 39.9333 -86.0000 270° West 157 181 4,000  Level Indianapolis TRACON
00:39 39.9000 -86.0333 217° Southwest 153 176 4,000  Level Indianapolis TRACON
00:40 39.8833 -86.0833 247° West 139 160 4,000  Level Indianapolis TRACON
00:41 39.8500 -86.1167 218° Southwest 140 161 4,000 -200 Level Indianapolis TRACON
00:42 39.8167 -86.1500 218° Southwest 143 165 3,600 -600 Descending Indianapolis TRACON
00:43 39.8000 -86.1833 237° Southwest 147 169 2,800 -700 Descending Indianapolis TRACON
00:44 39.7667 -86.2167 218° Southwest 124 143 2,200 -650 Descending Indianapolis TRACON
00:45 39.7500 -86.2500 237° Southwest 121 139 1,500 -700 Descending Indianapolis TRACON